createdAt,value
2017-10-06T00:01:19.829Z,79.07
2017-10-06T00:03:47.711Z,77.82
2017-10-06T00:06:15.927Z,77.00
2017-10-06T00:08:43.665Z,79.17
2017-10-06T00:11:11.467Z,79.20
2017-10-06T00:13:39.214Z,77.53
2017-10-06T00:16:06.998Z,78.29
2017-10-06T00:18:34.750Z,76.94
2017-10-06T00:21:02.475Z,75.85
2017-10-06T00:23:30.248Z,76.29
2017-10-06T00:25:57.980Z,76.15
2017-10-06T00:28:25.752Z,76.34
2017-10-06T00:30:53.508Z,77.37
2017-10-06T00:33:21.217Z,75.74
2017-10-06T00:35:49.065Z,74.94
2017-10-06T00:38:16.811Z,75.32
2017-10-06T00:40:44.552Z,74.45
2017-10-06T00:43:12.334Z,77.24
2017-10-06T00:45:40.039Z,73.84
2017-10-06T00:48:07.780Z,74.57
2017-10-06T00:50:35.530Z,75.51
2017-10-06T00:53:03.220Z,74.38
2017-10-06T00:55:30.997Z,76.46
2017-10-06T00:57:58.805Z,75.96
2017-10-06T01:00:26.664Z,76.25
2017-10-06T01:02:54.392Z,76.92
2017-10-06T01:05:22.157Z,77.21
2017-10-06T01:07:49.945Z,77.02
2017-10-06T01:10:17.664Z,78.04
2017-10-06T01:12:45.400Z,78.93
2017-10-06T01:15:13.143Z,79.98
2017-10-06T01:17:40.914Z,82.84
2017-10-06T01:20:08.726Z,81.31
2017-10-06T01:22:36.474Z,82.21
2017-10-06T01:25:04.299Z,79.73
2017-10-06T01:27:32.066Z,81.95
2017-10-06T01:29:59.754Z,82.65
2017-10-06T01:32:27.536Z,82.81
2017-10-06T01:34:55.243Z,78.39
2017-10-06T01:37:23.013Z,79.60
2017-10-06T01:39:51.519Z,77.19
2017-10-06T01:42:19.258Z,76.57
2017-10-06T01:44:46.990Z,80.43
2017-10-06T01:47:14.742Z,80.93
2017-10-06T01:49:42.462Z,75.13
2017-10-06T01:52:10.247Z,76.68
2017-10-06T01:54:37.949Z,79.63
2017-10-06T01:57:05.754Z,81.01
2017-10-06T01:59:33.638Z,80.14
2017-10-06T02:02:01.353Z,81.32
2017-10-06T02:04:29.112Z,82.31
2017-10-06T02:06:56.936Z,81.35
2017-10-06T02:09:24.881Z,83.41
2017-10-06T02:11:52.559Z,83.46
2017-10-06T02:14:20.408Z,81.85
2017-10-06T02:16:48.174Z,78.75
2017-10-06T02:19:15.882Z,80.88
2017-10-06T02:21:43.677Z,80.33
2017-10-06T02:24:11.387Z,81.65
2017-10-06T02:26:39.128Z,80.93
2017-10-06T02:29:06.930Z,80.16
2017-10-06T02:31:34.749Z,81.01
2017-10-06T02:34:02.452Z,82.11
2017-10-06T02:36:30.386Z,82.35
2017-10-06T02:38:58.154Z,81.72
2017-10-06T02:41:25.837Z,82.54
2017-10-06T02:43:53.620Z,82.60
2017-10-06T02:46:21.376Z,83.27
2017-10-06T02:48:49.068Z,81.65
2017-10-06T02:51:16.847Z,80.11
2017-10-06T02:53:44.582Z,79.91
2017-10-06T02:56:13.096Z,78.58
2017-10-06T02:58:40.854Z,78.83
2017-10-06T03:01:08.672Z,81.80
2017-10-06T03:03:36.438Z,82.07
2017-10-06T03:06:04.265Z,81.86
2017-10-06T03:08:32.110Z,83.12
2017-10-06T03:10:59.903Z,79.47
2017-10-06T03:13:27.744Z,82.84
2017-10-06T03:15:55.584Z,82.27
2017-10-06T03:18:23.343Z,79.93
2017-10-06T03:20:51.117Z,81.38
2017-10-06T03:23:18.908Z,82.57
2017-10-06T03:25:46.700Z,83.86
2017-10-06T03:28:14.389Z,83.10
2017-10-06T03:30:42.141Z,83.02
2017-10-06T03:33:09.853Z,82.60
2017-10-06T03:35:37.595Z,82.56
2017-10-06T03:38:05.536Z,83.54
2017-10-06T03:40:33.239Z,83.75
2017-10-06T03:43:00.945Z,83.03
2017-10-06T03:45:28.834Z,82.57
2017-10-06T03:47:56.519Z,83.18
2017-10-06T03:50:24.283Z,84.55
2017-10-06T03:52:52.022Z,83.71
2017-10-06T03:55:19.752Z,85.00
2017-10-06T03:57:47.450Z,83.93
2017-10-06T04:00:15.145Z,83.17
2017-10-06T04:02:42.869Z,83.68
2017-10-06T04:05:10.754Z,84.95
2017-10-06T04:07:38.446Z,83.82
2017-10-06T04:10:06.244Z,83.63
2017-10-06T04:12:34.129Z,83.31
2017-10-06T04:15:01.813Z,84.80
2017-10-06T04:17:29.624Z,84.79
2017-10-06T04:19:57.398Z,84.42
2017-10-06T04:22:25.072Z,84.21
2017-10-06T04:24:52.817Z,83.96
2017-10-06T04:27:20.526Z,79.84
2017-10-06T04:29:48.262Z,80.40
2017-10-06T04:32:16.045Z,82.40
2017-10-06T04:34:43.796Z,82.76
2017-10-06T04:37:11.551Z,84.60
2017-10-06T04:39:39.283Z,85.26
2017-10-06T04:42:07.065Z,82.62
2017-10-06T04:44:34.749Z,81.80
2017-10-06T04:47:02.512Z,82.99
2017-10-06T04:49:30.282Z,84.47
2017-10-06T04:51:57.994Z,85.07
2017-10-06T04:54:27.707Z,85.05
2017-10-06T04:56:55.462Z,85.46
2017-10-06T04:59:23.378Z,85.72
2017-10-06T05:01:51.264Z,82.53
2017-10-06T05:04:23.862Z,81.77
2017-10-06T05:06:51.705Z,82.63
2017-10-06T05:09:19.372Z,85.15
2017-10-06T05:11:47.110Z,85.55
2017-10-06T05:14:14.912Z,82.54
2017-10-06T05:16:42.698Z,85.07
2017-10-06T05:19:10.466Z,83.33
2017-10-06T05:21:38.235Z,84.19
2017-10-06T05:24:05.935Z,81.64
2017-10-06T05:26:33.679Z,83.67
2017-10-06T05:29:01.409Z,80.43
2017-10-06T05:31:29.139Z,81.07
2017-10-06T05:33:56.942Z,83.22
2017-10-06T05:36:24.842Z,80.70
2017-10-06T05:38:52.647Z,81.58
2017-10-06T05:41:20.354Z,82.01
2017-10-06T05:43:48.086Z,83.63
2017-10-06T05:46:15.835Z,81.30
2017-10-06T05:48:43.576Z,83.50
2017-10-06T05:51:11.248Z,82.60
2017-10-06T05:53:39.027Z,84.37
2017-10-06T05:56:06.724Z,83.75
2017-10-06T05:58:34.469Z,85.36
2017-10-06T06:01:02.223Z,85.80
2017-10-06T06:03:29.967Z,81.48
2017-10-06T06:05:57.678Z,80.83
2017-10-06T06:08:25.470Z,83.56
2017-10-06T06:10:53.208Z,84.71
2017-10-06T06:13:20.992Z,84.29
2017-10-06T06:15:48.689Z,86.78
2017-10-06T06:18:16.384Z,86.59
2017-10-06T06:20:44.120Z,85.89
2017-10-06T06:23:11.856Z,85.31
2017-10-06T06:25:39.600Z,84.98
2017-10-06T06:28:07.322Z,84.64
2017-10-06T06:30:35.124Z,83.95
2017-10-06T06:33:02.868Z,82.87
2017-10-06T06:35:30.638Z,83.13
2017-10-06T06:37:58.409Z,83.14
2017-10-06T06:40:26.132Z,83.08
2017-10-06T06:42:53.838Z,82.64
2017-10-06T06:45:21.637Z,82.46
2017-10-06T06:47:49.402Z,84.24
2017-10-06T06:50:17.201Z,84.23
2017-10-06T06:52:44.924Z,83.36
2017-10-06T06:55:12.775Z,82.63
2017-10-06T06:57:40.504Z,82.91
2017-10-06T07:00:08.263Z,82.95
2017-10-06T07:02:36.182Z,84.74
2017-10-06T07:05:03.952Z,85.43
2017-10-06T07:07:31.653Z,80.46
2017-10-06T07:09:59.445Z,81.65
2017-10-06T07:12:27.271Z,83.37
2017-10-06T07:14:55.193Z,82.68
2017-10-06T07:17:23.017Z,82.47
2017-10-06T07:19:50.814Z,82.94
2017-10-06T07:22:18.651Z,82.60
2017-10-06T07:24:46.445Z,81.26
2017-10-06T07:27:14.152Z,81.01
2017-10-06T07:29:41.862Z,80.47
2017-10-06T07:32:09.751Z,78.39
2017-10-06T07:34:38.725Z,77.97
2017-10-06T07:37:06.486Z,74.90
2017-10-06T07:39:34.229Z,74.72
2017-10-06T07:42:02.003Z,74.38
2017-10-06T07:44:29.765Z,71.58
2017-10-06T07:46:58.812Z,74.58
2017-10-06T07:49:26.510Z,73.41
2017-10-06T07:51:54.351Z,73.87
2017-10-06T07:54:22.077Z,73.91
2017-10-06T07:56:49.851Z,76.54
2017-10-06T07:59:17.542Z,75.12
2017-10-06T08:01:45.302Z,74.16
2017-10-06T08:04:13.057Z,62.77
2017-10-06T08:06:40.856Z,62.56
2017-10-06T08:09:08.784Z,72.67
2017-10-06T08:11:36.563Z,74.28
2017-10-06T08:14:04.316Z,62.81
2017-10-06T08:16:32.245Z,65.70
2017-10-06T08:19:00.729Z,68.48
2017-10-06T08:21:28.556Z,61.08
2017-10-06T08:23:56.403Z,61.75
2017-10-06T08:26:24.226Z,61.24
2017-10-06T08:28:52.032Z,62.76
2017-10-06T08:31:19.852Z,61.14
2017-10-06T08:33:47.548Z,61.65
2017-10-06T08:36:15.268Z,67.36
2017-10-06T08:38:42.990Z,68.00
2017-10-06T08:41:10.734Z,68.86
2017-10-06T08:43:38.483Z,69.51
2017-10-06T08:46:06.236Z,67.87
2017-10-06T08:48:34.044Z,68.80
2017-10-06T08:51:01.837Z,69.61
2017-10-06T08:53:29.611Z,65.10
2017-10-06T08:55:57.478Z,68.21
2017-10-06T08:58:25.193Z,69.33
2017-10-06T09:00:52.976Z,68.86
2017-10-06T09:03:21.532Z,70.58
2017-10-06T09:05:49.675Z,72.33
2017-10-06T09:08:17.493Z,72.56
2017-10-06T09:10:45.866Z,73.39
2017-10-06T09:13:13.597Z,72.60
2017-10-06T09:15:41.388Z,75.22
2017-10-06T09:18:09.271Z,74.81
2017-10-06T09:20:37.005Z,73.80
2017-10-06T09:23:05.128Z,74.36
2017-10-06T09:25:36.625Z,72.12
2017-10-06T09:28:04.900Z,72.87
2017-10-06T09:30:32.804Z,68.74
2017-10-06T09:33:00.518Z,72.59
2017-10-06T09:35:28.272Z,67.88
2017-10-06T09:37:56.048Z,65.36
2017-10-06T09:40:23.805Z,65.36
2017-10-06T09:42:51.541Z,68.70
2017-10-06T09:45:19.313Z,70.59
2017-10-06T09:47:47.013Z,69.24
2017-10-06T09:50:14.757Z,59.24
2017-10-06T09:52:42.584Z,62.79
2017-10-06T09:55:10.385Z,63.04
2017-10-06T09:57:38.269Z,63.48
2017-10-06T10:00:05.991Z,63.37
2017-10-06T10:02:33.742Z,64.40
2017-10-06T10:05:01.541Z,61.80
2017-10-06T10:07:29.503Z,60.55
2017-10-06T10:09:57.268Z,60.23
2017-10-06T10:12:25.941Z,58.50
2017-10-06T10:14:53.642Z,55.64
2017-10-06T10:17:21.393Z,58.53
2017-10-06T10:19:49.160Z,58.22
2017-10-06T10:22:16.925Z,59.63
2017-10-06T10:24:44.673Z,60.80
2017-10-06T10:27:12.432Z,60.88
2017-10-06T10:29:40.196Z,63.57
2017-10-06T10:32:07.912Z,63.30
2017-10-06T10:34:35.614Z,66.47
2017-10-06T10:37:03.382Z,66.14
2017-10-06T10:39:31.102Z,68.04
2017-10-06T10:41:58.865Z,68.62
2017-10-06T10:44:26.629Z,69.25
2017-10-06T10:46:54.380Z,71.44
2017-10-06T10:49:22.129Z,72.74
2017-10-06T10:51:50.082Z,70.47
2017-10-06T10:54:18.661Z,70.08
2017-10-06T10:56:46.525Z,73.35
2017-10-06T10:59:14.381Z,72.45
2017-10-06T11:01:42.230Z,71.90
2017-10-06T11:04:10.066Z,71.34
2017-10-06T11:06:37.847Z,72.93
2017-10-06T11:09:05.611Z,74.41
2017-10-06T11:11:33.430Z,73.93
2017-10-06T11:14:01.260Z,74.43
2017-10-06T11:16:29.018Z,73.98
2017-10-06T11:18:56.817Z,76.50
2017-10-06T11:21:25.782Z,76.59
2017-10-06T11:23:53.550Z,76.17
2017-10-06T11:26:21.389Z,76.48
2017-10-06T11:28:49.143Z,77.04
2017-10-06T11:31:17.017Z,75.79
2017-10-06T11:33:44.855Z,76.74
2017-10-06T11:36:12.653Z,76.30
2017-10-06T11:38:41.284Z,76.23
2017-10-06T11:41:09.031Z,73.45
2017-10-06T11:43:36.858Z,73.96
2017-10-06T11:46:04.596Z,73.64
2017-10-06T11:48:32.341Z,75.28
2017-10-06T11:51:01.238Z,73.34
2017-10-06T11:53:28.977Z,73.34
2017-10-06T11:55:56.719Z,71.81
2017-10-06T11:58:24.564Z,69.43
2017-10-06T12:00:53.890Z,68.15
2017-10-06T12:03:21.722Z,68.79
2017-10-06T12:05:50.216Z,69.17
2017-10-06T12:08:17.974Z,67.61
2017-10-06T12:10:45.791Z,69.55
2017-10-06T12:13:13.522Z,66.17
2017-10-06T12:15:41.393Z,64.90
2017-10-06T12:18:10.178Z,66.55
2017-10-06T12:20:38.107Z,67.92
2017-10-06T12:23:05.910Z,62.28
2017-10-06T12:25:33.712Z,62.01
2017-10-06T12:28:01.532Z,62.27
2017-10-06T12:30:29.403Z,62.87
2017-10-06T12:32:57.185Z,63.92
2017-10-06T12:35:25.616Z,63.33
2017-10-06T12:37:53.471Z,66.51
2017-10-06T12:40:21.486Z,66.13
2017-10-06T12:42:49.223Z,67.96
2017-10-06T12:45:17.664Z,67.29
2017-10-06T12:47:45.489Z,68.78
2017-10-06T12:50:13.527Z,68.02
2017-10-06T12:52:41.309Z,68.13
2017-10-06T12:55:09.935Z,67.48
2017-10-06T12:57:37.767Z,68.23
2017-10-06T13:00:05.628Z,67.08
2017-10-06T13:02:33.433Z,67.49
2017-10-06T13:05:02.154Z,67.16
2017-10-06T13:07:31.061Z,64.73
2017-10-06T13:09:59.423Z,68.08
2017-10-06T13:12:29.518Z,64.72
2017-10-06T13:14:57.343Z,66.41
2017-10-06T13:17:25.138Z,65.48
2017-10-06T13:19:52.930Z,66.16
2017-10-06T13:22:20.710Z,67.00
2017-10-06T13:24:48.524Z,66.82
2017-10-06T13:27:16.278Z,66.88
2017-10-06T13:29:44.098Z,67.85
2017-10-06T13:32:11.901Z,67.48
2017-10-06T13:34:39.664Z,65.68
2017-10-06T13:37:07.433Z,64.60
2017-10-06T13:39:35.156Z,61.56
2017-10-06T13:42:04.364Z,65.51
2017-10-06T13:44:32.101Z,64.90
2017-10-06T13:47:00.727Z,64.46
2017-10-06T13:49:30.741Z,64.50
2017-10-06T13:52:00.427Z,64.48
2017-10-06T13:54:28.216Z,65.25
2017-10-06T13:56:55.965Z,67.61
2017-10-06T13:59:23.761Z,63.11
2017-10-06T14:01:51.464Z,65.84
2017-10-06T14:04:19.273Z,65.05
2017-10-06T14:06:47.037Z,67.32
2017-10-06T14:09:14.744Z,66.36
2017-10-06T14:11:42.566Z,65.96
2017-10-06T14:14:10.365Z,65.03
2017-10-06T14:16:38.875Z,64.79
2017-10-06T14:19:07.844Z,67.03
2017-10-06T14:21:35.741Z,65.26
2017-10-06T14:24:03.583Z,65.23
2017-10-06T14:26:31.428Z,62.45
2017-10-06T14:28:59.192Z,64.35
2017-10-06T14:31:26.889Z,65.41
2017-10-06T14:33:54.648Z,68.53
2017-10-06T14:36:22.348Z,70.59
2017-10-06T14:38:50.162Z,72.65
2017-10-06T14:43:51.783Z,74.04
2017-10-06T14:46:19.607Z,72.56
2017-10-06T14:48:47.585Z,72.64
2017-10-06T14:51:15.421Z,75.10
2017-10-06T14:53:43.188Z,76.09
2017-10-06T14:56:10.933Z,77.28
2017-10-06T14:58:38.631Z,75.94
2017-10-06T15:01:06.505Z,75.30
2017-10-06T15:03:34.247Z,75.14
2017-10-06T15:06:02.000Z,78.53
2017-10-06T15:08:29.760Z,78.22
2017-10-06T15:10:57.545Z,80.71
2017-10-06T15:13:25.279Z,78.97
2017-10-06T15:15:53.035Z,79.33
2017-10-06T15:18:20.794Z,80.44
2017-10-06T15:20:49.602Z,80.24
2017-10-06T15:23:17.391Z,78.92
2017-10-06T15:25:45.136Z,79.67
2017-10-06T15:28:12.913Z,80.04
2017-10-06T15:30:40.834Z,81.68
2017-10-06T15:33:08.597Z,78.57
2017-10-06T15:35:36.311Z,75.83
2017-10-06T15:38:04.116Z,75.82
2017-10-06T15:40:31.915Z,75.61
2017-10-06T15:42:59.737Z,76.64
2017-10-06T15:45:27.574Z,75.56
2017-10-06T15:47:55.476Z,76.43
2017-10-06T15:50:23.312Z,77.98
2017-10-06T15:52:52.220Z,74.97
2017-10-06T15:55:20.256Z,78.28
2017-10-06T15:57:47.986Z,77.86
2017-10-06T16:00:15.904Z,78.76
2017-10-06T16:02:44.788Z,77.04
2017-10-06T16:05:12.677Z,76.73
2017-10-06T16:07:40.474Z,78.43
2017-10-06T16:10:08.298Z,77.61
2017-10-06T16:12:36.058Z,78.49
2017-10-06T16:15:03.907Z,80.24
2017-10-06T16:17:31.753Z,79.41
2017-10-06T16:19:59.522Z,79.54
2017-10-06T16:22:27.231Z,79.62
2017-10-06T16:24:55.055Z,79.16
2017-10-06T16:27:22.789Z,79.47
2017-10-06T16:29:50.523Z,81.24
2017-10-06T16:32:18.474Z,81.14
2017-10-06T16:34:46.294Z,80.92
2017-10-06T16:37:15.276Z,81.94
2017-10-06T16:39:43.053Z,81.21
2017-10-06T16:42:11.625Z,81.90
2017-10-06T16:44:39.433Z,81.96
2017-10-06T16:47:07.210Z,80.99
2017-10-06T16:49:34.983Z,81.85
2017-10-06T16:52:02.688Z,82.60
2017-10-06T16:54:30.454Z,83.14
2017-10-06T16:56:58.149Z,84.63
2017-10-06T16:59:25.930Z,83.16
2017-10-06T17:01:53.737Z,77.38
2017-10-06T17:04:21.455Z,76.93
2017-10-06T17:06:49.184Z,77.77
2017-10-06T17:09:17.158Z,79.13
2017-10-06T17:11:44.987Z,78.24
2017-10-06T17:14:12.930Z,77.84
2017-10-06T17:16:40.741Z,77.68
2017-10-06T17:19:08.503Z,77.89
2017-10-06T17:21:36.590Z,77.17
2017-10-06T17:24:04.382Z,78.95
2017-10-06T17:26:32.081Z,76.54
2017-10-06T17:28:59.883Z,77.30
2017-10-06T17:31:27.595Z,75.88
2017-10-06T17:33:55.398Z,77.55
2017-10-06T17:36:23.177Z,76.45
2017-10-06T17:38:50.956Z,77.00
2017-10-06T17:41:18.708Z,77.98
2017-10-06T17:43:46.451Z,76.94
2017-10-06T17:46:14.193Z,77.80
2017-10-06T17:48:41.916Z,77.94
2017-10-06T17:51:10.384Z,76.45
2017-10-06T17:53:38.263Z,78.75
2017-10-06T17:56:05.952Z,79.51
2017-10-06T17:58:33.641Z,79.04
2017-10-06T18:01:01.421Z,76.44
2017-10-06T18:03:29.154Z,78.28
2017-10-06T18:05:56.928Z,78.54
2017-10-06T18:08:24.705Z,77.95
2017-10-06T18:10:52.586Z,77.77
2017-10-06T18:13:20.361Z,77.90
2017-10-06T18:15:48.274Z,79.12
2017-10-06T18:18:16.027Z,79.67
2017-10-06T18:20:44.435Z,81.57
2017-10-06T18:23:12.184Z,82.40
2017-10-06T18:25:41.242Z,84.21
2017-10-06T18:28:09.070Z,84.33
2017-10-06T18:30:36.843Z,84.60
2017-10-06T18:33:04.803Z,85.03
2017-10-06T18:35:32.530Z,85.15
2017-10-06T18:38:00.302Z,84.95
2017-10-06T18:40:28.240Z,85.78
2017-10-06T18:42:56.000Z,85.79
2017-10-06T18:45:23.863Z,85.93
2017-10-06T18:47:51.676Z,85.89
2017-10-06T18:50:19.447Z,85.62
2017-10-06T18:52:47.417Z,86.82
2017-10-06T18:55:15.422Z,86.26
2017-10-06T18:57:43.204Z,86.13
2017-10-06T19:00:11.265Z,86.46
2017-10-06T19:02:39.075Z,86.60
2017-10-06T19:05:07.158Z,86.87
2017-10-06T19:07:34.928Z,87.54
2017-10-06T19:10:02.854Z,88.37
2017-10-06T19:12:30.670Z,86.94
2017-10-06T19:14:58.829Z,86.30
2017-10-06T19:17:26.723Z,87.22
2017-10-06T19:19:54.501Z,87.03
2017-10-06T19:22:22.416Z,86.48
2017-10-06T19:24:50.321Z,87.24
2017-10-06T19:27:18.091Z,86.79
2017-10-06T19:29:46.395Z,85.81
2017-10-06T19:32:14.170Z,86.64
2017-10-06T19:34:41.906Z,86.75
2017-10-06T19:37:09.704Z,86.58
2017-10-06T19:39:37.673Z,87.74
2017-10-06T19:42:05.499Z,87.06
2017-10-06T19:44:33.357Z,86.31
2017-10-06T19:47:01.245Z,85.71
2017-10-06T19:49:28.946Z,85.91
2017-10-06T19:51:56.657Z,87.60
2017-10-06T19:54:24.466Z,86.39
2017-10-06T19:56:52.530Z,84.34
2017-10-06T19:59:20.259Z,86.32
2017-10-06T20:01:48.381Z,85.88
2017-10-06T20:04:16.083Z,86.97
2017-10-06T20:06:43.834Z,86.04
2017-10-06T20:09:11.524Z,87.94
2017-10-06T20:11:39.323Z,87.57
2017-10-06T20:14:07.178Z,87.06
2017-10-06T20:16:34.891Z,87.52
2017-10-06T20:19:02.596Z,86.92
2017-10-06T20:21:30.423Z,86.37
2017-10-06T20:23:58.118Z,86.12
2017-10-06T20:26:25.857Z,86.46
2017-10-06T20:28:53.557Z,86.44
2017-10-06T20:31:21.294Z,86.88
2017-10-06T20:33:48.999Z,85.87
2017-10-06T20:36:17.731Z,86.87
2017-10-06T20:38:45.491Z,86.50
2017-10-06T20:41:13.277Z,86.19
2017-10-06T20:43:41.108Z,86.65
2017-10-06T20:46:08.834Z,86.80
2017-10-06T20:48:36.677Z,86.99
2017-10-06T20:51:04.387Z,87.23
2017-10-06T20:53:32.148Z,87.62
2017-10-06T20:55:59.898Z,88.01
2017-10-06T20:58:27.816Z,88.67
2017-10-06T21:00:55.640Z,88.49
2017-10-06T21:03:23.347Z,88.03
2017-10-06T21:05:51.213Z,87.23
2017-10-06T21:08:18.915Z,86.96
2017-10-06T21:10:46.612Z,87.26
2017-10-06T21:13:14.401Z,86.74
2017-10-06T21:15:42.101Z,87.27
2017-10-06T21:18:09.831Z,87.33
2017-10-06T21:20:37.668Z,88.15
2017-10-06T21:23:05.410Z,87.51
2017-10-06T21:25:33.126Z,87.53
2017-10-06T21:28:00.873Z,86.50
2017-10-06T21:30:28.699Z,85.32
2017-10-06T21:32:56.508Z,86.28
2017-10-06T21:35:24.231Z,87.18
2017-10-06T21:37:51.949Z,87.38
2017-10-06T21:40:19.718Z,88.06
2017-10-06T21:42:47.420Z,87.64
2017-10-06T21:45:15.176Z,88.03
2017-10-06T21:47:42.920Z,87.27
2017-10-06T21:50:10.617Z,86.75
2017-10-06T21:52:38.402Z,86.85
2017-10-06T21:55:06.157Z,87.43
2017-10-06T21:57:33.925Z,86.12
2017-10-06T22:00:01.756Z,86.19
2017-10-06T22:02:29.613Z,86.30
2017-10-06T22:04:57.358Z,86.34
2017-10-06T22:07:25.033Z,86.94
2017-10-06T22:09:52.809Z,87.11
2017-10-06T22:12:20.516Z,87.32
2017-10-06T22:14:48.225Z,87.54
2017-10-06T22:17:15.972Z,87.83
2017-10-06T22:19:43.717Z,88.13
2017-10-06T22:22:11.490Z,87.94
2017-10-06T22:24:39.305Z,87.90
2017-10-06T22:27:06.991Z,87.71
2017-10-06T22:29:34.689Z,87.13
2017-10-06T22:32:02.656Z,87.97
2017-10-06T22:34:30.390Z,87.96
2017-10-06T22:36:58.081Z,88.02
2017-10-06T22:39:26.872Z,88.19
2017-10-06T22:41:54.537Z,88.03
2017-10-06T22:44:22.251Z,88.49
2017-10-06T22:46:50.172Z,87.76
2017-10-06T22:49:17.886Z,88.42
2017-10-06T22:51:45.616Z,88.43
2017-10-06T22:54:13.394Z,88.39
2017-10-06T22:56:41.147Z,88.07
2017-10-06T22:59:08.818Z,87.72
2017-10-06T23:01:36.667Z,87.82
2017-10-06T23:04:05.053Z,89.24
2017-10-06T23:06:32.821Z,89.15
2017-10-06T23:09:00.594Z,88.35
2017-10-06T23:11:28.294Z,87.74
2017-10-06T23:13:56.000Z,87.81
2017-10-06T23:16:23.745Z,88.59
2017-10-06T23:18:51.429Z,89.65
2017-10-06T23:21:19.135Z,89.16
2017-10-06T23:23:48.085Z,88.23
2017-10-06T23:26:15.771Z,87.84
2017-10-06T23:28:43.488Z,88.22
2017-10-06T23:31:11.165Z,88.27
2017-10-06T23:33:38.956Z,87.61
2017-10-06T23:36:06.690Z,87.08
2017-10-06T23:38:34.369Z,87.70
2017-10-06T23:41:02.102Z,87.52
2017-10-06T23:43:29.837Z,87.77
2017-10-06T23:45:57.530Z,88.49
2017-10-06T23:48:25.292Z,87.84
2017-10-06T23:50:53.120Z,87.74
2017-10-06T23:53:20.781Z,88.42
2017-10-06T23:55:48.475Z,88.87
2017-10-06T23:58:16.186Z,88.69
